createdAt,value
2017-01-23T00:00:34.914Z,0
2017-01-23T00:01:34.537Z,0
2017-01-23T00:02:34.573Z,0
2017-01-23T00:03:34.993Z,0
2017-01-23T00:04:34.625Z,0
2017-01-23T00:05:34.641Z,0
2017-01-23T00:06:35.470Z,0
2017-01-23T00:07:35.099Z,0
2017-01-23T00:08:35.520Z,0
2017-01-23T00:09:34.740Z,0
2017-01-23T00:10:34.773Z,0
2017-01-23T00:11:34.401Z,0
2017-01-23T00:12:34.830Z,0
2017-01-23T00:13:34.860Z,0
2017-01-23T00:14:35.270Z,0
2017-01-23T00:15:34.909Z,0
2017-01-23T00:16:35.325Z,0
2017-01-23T00:17:35.347Z,0
2017-01-23T00:18:35.370Z,0
2017-01-23T00:19:35.400Z,0
2017-01-23T00:20:35.823Z,0
2017-01-23T00:21:35.064Z,0
2017-01-23T00:22:35.866Z,0
2017-01-23T00:23:35.527Z,0
2017-01-23T00:24:35.532Z,0
2017-01-23T00:25:34.759Z,0
2017-01-23T00:26:34.786Z,0
2017-01-23T00:27:35.608Z,0
2017-01-23T00:28:36.050Z,0
2017-01-23T00:29:35.653Z,0
2017-01-23T00:30:35.698Z,0
2017-01-23T00:31:35.308Z,0
2017-01-23T00:32:35.733Z,0
2017-01-23T00:33:35.358Z,0
2017-01-23T00:34:34.983Z,0
2017-01-23T00:35:35.407Z,0
2017-01-23T00:36:35.837Z,0
2017-01-23T00:37:36.253Z,0
2017-01-23T00:38:35.094Z,0
2017-01-23T00:39:35.510Z,0
2017-01-23T00:40:35.926Z,0
2017-01-23T00:41:35.560Z,0
2017-01-23T00:42:36.610Z,0
2017-01-23T00:43:36.006Z,0
2017-01-23T00:44:35.637Z,0
2017-01-23T00:45:35.262Z,0
2017-01-23T00:46:35.687Z,0
2017-01-23T00:47:35.707Z,0
2017-01-23T00:48:36.124Z,0
2017-01-23T00:49:35.760Z,0
2017-01-23T00:50:35.785Z,0
2017-01-23T00:51:36.606Z,0
2017-01-23T00:52:36.623Z,0
2017-01-23T00:53:36.655Z,0
2017-01-23T00:54:36.670Z,0
2017-01-23T00:55:35.531Z,0
2017-01-23T00:56:35.540Z,0
2017-01-23T00:57:35.965Z,0
2017-01-23T00:58:35.614Z,0
2017-01-23T00:59:35.610Z,0
2017-01-23T01:00:36.427Z,0
2017-01-23T01:01:36.477Z,0
2017-01-23T01:02:36.877Z,0
2017-01-23T01:03:36.505Z,0
2017-01-23T01:04:36.924Z,0
2017-01-23T01:05:36.166Z,0
2017-01-23T01:06:36.586Z,0
2017-01-23T01:07:36.607Z,0
2017-01-23T01:08:36.243Z,0
2017-01-23T01:09:36.648Z,0
2017-01-23T01:10:37.067Z,0
2017-01-23T01:11:36.305Z,0
2017-01-23T01:12:35.942Z,0
2017-01-23T01:13:36.359Z,0
2017-01-23T01:14:36.383Z,0
2017-01-23T01:15:36.816Z,0
2017-01-23T01:16:36.832Z,0
2017-01-23T01:17:36.064Z,0
2017-01-23T01:18:36.485Z,0
2017-01-23T01:19:36.506Z,0
2017-01-23T01:20:36.131Z,0
2017-01-23T01:21:36.556Z,0
2017-01-23T01:22:36.978Z,0
2017-01-23T01:23:37.005Z,0
2017-01-23T01:24:37.059Z,0
2017-01-23T01:25:36.662Z,0
2017-01-23T01:26:37.076Z,0
2017-01-23T01:27:36.718Z,0
2017-01-23T01:28:37.141Z,0
2017-01-23T01:29:36.781Z,0
2017-01-23T01:30:36.790Z,0
2017-01-23T01:31:37.208Z,0
2017-01-23T01:32:36.835Z,0
2017-01-23T01:33:37.257Z,0
2017-01-23T01:34:36.494Z,0
2017-01-23T01:35:37.706Z,0
2017-01-23T01:36:37.727Z,0
2017-01-23T01:37:37.743Z,0
2017-01-23T01:38:37.777Z,0
2017-01-23T01:39:37.010Z,0
2017-01-23T01:40:37.041Z,0
2017-01-23T01:41:36.668Z,0
2017-01-23T01:42:37.475Z,0
2017-01-23T01:43:37.503Z,0
2017-01-23T01:44:36.740Z,0
2017-01-23T01:45:37.981Z,0
2017-01-23T01:46:36.790Z,0
2017-01-23T01:47:38.008Z,0
2017-01-23T01:48:38.027Z,0
2017-01-23T01:49:37.251Z,0
2017-01-23T01:50:36.889Z,0
2017-01-23T01:51:37.325Z,0
2017-01-23T01:52:36.938Z,0
2017-01-23T01:53:37.381Z,0
2017-01-23T01:54:37.780Z,0
2017-01-23T01:55:37.026Z,0
2017-01-23T01:56:37.037Z,0
2017-01-23T01:57:37.858Z,0
2017-01-23T01:58:37.879Z,0
2017-01-23T01:59:37.510Z,0
2017-01-23T02:00:37.560Z,0
2017-01-23T02:01:37.150Z,0
2017-01-23T02:02:37.189Z,0
2017-01-23T02:03:37.205Z,0
2017-01-23T02:04:37.634Z,0
2017-01-23T02:05:38.039Z,0
2017-01-23T02:06:37.679Z,0
2017-01-23T02:07:37.705Z,0
2017-01-23T02:08:38.126Z,0
2017-01-23T02:09:38.175Z,0
2017-01-23T02:10:38.177Z,0
2017-01-23T02:11:38.203Z,0
2017-01-23T02:12:37.429Z,0
2017-01-23T02:13:37.864Z,0
2017-01-23T02:14:37.880Z,0
2017-01-23T02:15:37.498Z,0
2017-01-23T02:16:37.927Z,0
2017-01-23T02:17:37.949Z,0
2017-01-23T02:18:38.368Z,0
2017-01-23T02:19:38.417Z,0
2017-01-23T02:20:38.817Z,0
2017-01-23T02:21:38.046Z,0
2017-01-23T02:22:37.679Z,0
2017-01-23T02:23:37.704Z,0
2017-01-23T02:24:38.130Z,0
2017-01-23T02:25:38.149Z,0
2017-01-23T02:26:38.574Z,0
2017-01-23T02:27:37.803Z,0
2017-01-23T02:28:38.214Z,0
2017-01-23T02:29:38.643Z,0
2017-01-23T02:30:38.273Z,0
2017-01-23T02:31:38.722Z,0
2017-01-23T02:32:39.114Z,0
2017-01-23T02:33:38.359Z,0
2017-01-23T02:34:37.976Z,0
2017-01-23T02:35:38.000Z,0
2017-01-23T02:36:38.417Z,0
2017-01-23T02:37:38.445Z,0
2017-01-23T02:38:38.079Z,0
2017-01-23T02:39:38.919Z,0
2017-01-23T02:40:39.307Z,0
2017-01-23T02:41:38.945Z,0
2017-01-23T02:42:38.173Z,0
2017-01-23T02:43:38.193Z,0
2017-01-23T02:44:38.622Z,0
2017-01-23T02:45:38.639Z,0
2017-01-23T02:46:38.272Z,0
2017-01-23T02:47:38.688Z,0
2017-01-23T02:48:38.321Z,0
2017-01-23T02:49:38.738Z,0
2017-01-23T02:50:39.159Z,0
2017-01-23T02:51:38.792Z,0
2017-01-23T02:52:38.814Z,0
2017-01-23T02:53:39.234Z,0
2017-01-23T02:54:38.467Z,0
2017-01-23T02:55:39.716Z,0
2017-01-23T02:56:39.308Z,0
2017-01-23T02:57:38.541Z,0
2017-01-23T02:58:38.966Z,0
2017-01-23T02:59:38.986Z,0
2017-01-23T03:00:39.800Z,0
2017-01-23T03:01:39.433Z,0
2017-01-23T03:02:39.065Z,0
2017-01-23T03:03:38.685Z,0
2017-01-23T03:04:38.716Z,0
2017-01-23T03:05:38.739Z,0
2017-01-23T03:06:38.761Z,0
2017-01-23T03:07:39.181Z,0
2017-01-23T03:08:39.610Z,0
2017-01-23T03:09:38.835Z,0
2017-01-23T03:10:39.659Z,0
2017-01-23T03:11:39.681Z,0
2017-01-23T03:12:40.128Z,0
2017-01-23T03:13:39.722Z,0
2017-01-23T03:14:39.359Z,0
2017-01-23T03:15:39.775Z,0
2017-01-23T03:16:39.408Z,0
2017-01-23T03:17:39.437Z,0
2017-01-23T03:18:39.062Z,0
2017-01-23T03:19:39.479Z,0
2017-01-23T03:20:39.907Z,0
2017-01-23T03:21:39.536Z,0
2017-01-23T03:22:40.350Z,0
2017-01-23T03:23:39.178Z,0
2017-01-23T03:24:40.399Z,0
2017-01-23T03:25:39.632Z,0
2017-01-23T03:26:39.654Z,0
2017-01-23T03:27:39.676Z,0
2017-01-23T03:28:39.710Z,0
2017-01-23T03:29:39.327Z,0
2017-01-23T03:30:39.753Z,0
2017-01-23T03:31:39.773Z,0
2017-01-23T03:32:39.802Z,0
2017-01-23T03:33:39.827Z,0
2017-01-23T03:34:39.847Z,0
2017-01-23T03:35:39.880Z,0
2017-01-23T03:36:39.497Z,0
2017-01-23T03:37:39.918Z,0
2017-01-23T03:38:40.351Z,0
2017-01-23T03:39:39.972Z,0
2017-01-23T03:40:40.779Z,0
2017-01-23T03:41:40.405Z,0
2017-01-23T03:42:40.440Z,0
2017-01-23T03:43:40.468Z,0
2017-01-23T03:44:40.096Z,0
2017-01-23T03:45:40.116Z,0
2017-01-23T03:46:40.137Z,0
2017-01-23T03:47:39.766Z,0
2017-01-23T03:48:40.595Z,0
2017-01-23T03:49:40.611Z,0
2017-01-23T03:50:40.636Z,0
2017-01-23T03:51:41.060Z,0
2017-01-23T03:52:40.291Z,0
2017-01-23T03:53:40.703Z,0
2017-01-23T03:54:40.339Z,0
2017-01-23T03:55:39.964Z,0
2017-01-23T03:56:40.389Z,0
2017-01-23T03:57:41.201Z,0
2017-01-23T03:58:41.223Z,0
2017-01-23T03:59:40.859Z,0
2017-01-23T04:00:40.885Z,0
2017-01-23T04:01:41.305Z,0
2017-01-23T04:02:40.934Z,0
2017-01-23T04:03:40.966Z,0
2017-01-23T04:04:41.380Z,0
2017-01-23T04:05:40.208Z,0
2017-01-23T04:06:40.229Z,0
2017-01-23T04:07:40.658Z,0
2017-01-23T04:08:40.675Z,0
2017-01-23T04:09:40.713Z,0
2017-01-23T04:10:41.520Z,0
2017-01-23T04:11:41.552Z,0
2017-01-23T04:12:41.573Z,0
2017-01-23T04:13:40.407Z,0
2017-01-23T04:14:41.615Z,0
2017-01-23T04:15:40.881Z,0
2017-01-23T04:16:40.874Z,0
2017-01-23T04:17:41.294Z,0
2017-01-23T04:18:40.934Z,0
2017-01-23T04:19:40.943Z,0
2017-01-23T04:20:40.580Z,0
2017-01-23T04:21:41.788Z,0
2017-01-23T04:22:41.410Z,0
2017-01-23T04:23:40.646Z,0
2017-01-23T04:24:41.067Z,0
2017-01-23T04:25:41.100Z,0
2017-01-23T04:26:41.112Z,0
2017-01-23T04:27:41.141Z,0
2017-01-23T04:28:41.171Z,0
2017-01-23T04:29:41.190Z,0
2017-01-23T04:30:41.216Z,0
2017-01-23T04:31:41.641Z,0
2017-01-23T04:32:41.657Z,0
2017-01-23T04:33:41.307Z,0
2017-01-23T04:34:41.323Z,0
2017-01-23T04:35:40.948Z,0
2017-01-23T04:36:41.769Z,0
2017-01-23T04:37:41.786Z,0
2017-01-23T04:38:41.811Z,0
2017-01-23T04:39:41.048Z,0
2017-01-23T04:40:42.248Z,0
2017-01-23T04:41:41.885Z,0
2017-01-23T04:42:41.516Z,0
2017-01-23T04:43:41.139Z,0
2017-01-23T04:44:41.948Z,0
2017-01-23T04:45:41.592Z,0
2017-01-23T04:46:41.609Z,0
2017-01-23T04:47:41.622Z,0
2017-01-23T04:48:41.658Z,0
2017-01-23T04:49:41.678Z,0
2017-01-23T04:50:42.100Z,0
2017-01-23T04:51:42.128Z,0
2017-01-23T04:52:41.749Z,0
2017-01-23T04:53:41.785Z,0
2017-01-23T04:54:41.805Z,0
2017-01-23T04:55:41.434Z,0
2017-01-23T04:56:41.848Z,0
2017-01-23T04:57:42.274Z,0
2017-01-23T04:58:41.502Z,0
2017-01-23T04:59:42.327Z,0
2017-01-23T05:00:41.955Z,0
2017-01-23T05:01:42.372Z,0
2017-01-23T05:02:42.444Z,0
2017-01-23T05:03:41.625Z,0
2017-01-23T05:04:41.653Z,0
2017-01-23T05:05:42.466Z,0
2017-01-23T05:06:42.891Z,0
2017-01-23T05:07:41.721Z,0
2017-01-23T05:08:42.148Z,0
2017-01-23T05:09:42.559Z,0
2017-01-23T05:10:42.189Z,0
2017-01-23T05:11:41.811Z,0
2017-01-23T05:12:42.251Z,0
2017-01-23T05:13:41.867Z,0
2017-01-23T05:14:41.886Z,0
2017-01-23T05:15:42.315Z,0
2017-01-23T05:16:42.734Z,0
2017-01-23T05:17:43.152Z,0
2017-01-23T05:18:41.988Z,0
2017-01-23T05:19:42.410Z,0
2017-01-23T05:20:42.856Z,0
2017-01-23T05:21:42.062Z,0
2017-01-23T05:22:42.480Z,0
2017-01-23T05:23:42.112Z,0
2017-01-23T05:24:42.132Z,0
2017-01-23T05:25:42.950Z,0
2017-01-23T05:26:42.979Z,0
2017-01-23T05:27:42.999Z,0
2017-01-23T05:28:43.411Z,0
2017-01-23T05:29:43.049Z,0
2017-01-23T05:30:43.468Z,0
2017-01-23T05:31:43.093Z,0
2017-01-23T05:32:43.115Z,0
2017-01-23T05:33:42.377Z,0
2017-01-23T05:34:42.768Z,0
2017-01-23T05:35:43.193Z,0
2017-01-23T05:36:43.641Z,0
2017-01-23T05:37:42.847Z,0
2017-01-23T05:38:42.863Z,0
2017-01-23T05:39:43.283Z,0
2017-01-23T05:40:43.316Z,0
2017-01-23T05:41:42.969Z,0
2017-01-23T05:42:42.993Z,0
2017-01-23T05:43:43.386Z,0
2017-01-23T05:44:43.029Z,0
2017-01-23T05:45:43.044Z,0
2017-01-23T05:46:43.854Z,0
2017-01-23T05:47:43.081Z,0
2017-01-23T05:48:43.507Z,0
2017-01-23T05:49:43.531Z,0
2017-01-23T05:50:43.555Z,0
2017-01-23T05:51:43.584Z,0
2017-01-23T05:52:42.815Z,0
2017-01-23T05:53:43.234Z,0
2017-01-23T05:54:42.871Z,0
2017-01-23T05:55:43.272Z,0
2017-01-23T05:56:42.905Z,0
2017-01-23T05:57:42.933Z,0
2017-01-23T05:58:43.354Z,0
2017-01-23T05:59:42.984Z,0
2017-01-23T06:00:43.791Z,0
2017-01-23T06:01:43.428Z,0
2017-01-23T06:02:43.852Z,0
2017-01-23T06:03:43.477Z,0
2017-01-23T06:04:44.286Z,0
2017-01-23T06:05:43.525Z,0
2017-01-23T06:06:43.189Z,0
2017-01-23T06:07:43.965Z,0
2017-01-23T06:08:43.594Z,0
2017-01-23T06:09:43.618Z,0
2017-01-23T06:10:43.646Z,0
2017-01-23T06:11:44.480Z,0
2017-01-23T06:12:43.696Z,0
2017-01-23T06:13:44.113Z,0
2017-01-23T06:14:43.744Z,0
2017-01-23T06:15:43.770Z,0
2017-01-23T06:16:43.792Z,0
2017-01-23T06:17:43.817Z,0
2017-01-23T06:18:43.864Z,0
2017-01-23T06:19:44.258Z,0
2017-01-23T06:20:43.918Z,0
2017-01-23T06:21:44.302Z,0
2017-01-23T06:22:44.336Z,0
2017-01-23T06:23:43.957Z,0
2017-01-23T06:24:44.782Z,0
2017-01-23T06:25:44.410Z,0
2017-01-23T06:26:43.635Z,0
2017-01-23T06:27:44.051Z,0
2017-01-23T06:28:44.521Z,0
2017-01-23T06:29:44.504Z,0
2017-01-23T06:30:44.548Z,0
2017-01-23T06:31:44.161Z,0
2017-01-23T06:32:44.575Z,0
2017-01-23T06:33:44.599Z,0
2017-01-23T06:34:45.040Z,0
2017-01-23T06:35:45.042Z,0
2017-01-23T06:36:45.073Z,0
2017-01-23T06:37:43.906Z,0
2017-01-23T06:38:44.735Z,0
2017-01-23T06:39:44.757Z,0
2017-01-23T06:40:44.385Z,0
2017-01-23T06:41:44.798Z,0
2017-01-23T06:42:44.418Z,0
2017-01-23T06:43:44.456Z,0
2017-01-23T06:44:44.075Z,0
2017-01-23T06:45:44.908Z,0
2017-01-23T06:46:45.321Z,0
2017-01-23T06:47:45.342Z,4
2017-01-23T06:48:45.419Z,0
2017-01-23T06:49:44.199Z,0
2017-01-23T06:50:44.624Z,4
2017-01-23T06:51:45.045Z,4
2017-01-23T06:52:44.678Z,4
2017-01-23T06:53:45.090Z,4
2017-01-23T06:54:44.715Z,4
2017-01-23T06:55:44.744Z,8
2017-01-23T06:56:44.776Z,8
2017-01-23T06:57:45.594Z,8
2017-01-23T06:58:45.215Z,12
2017-01-23T06:59:45.239Z,12
2017-01-23T07:00:44.863Z,16
2017-01-23T07:01:44.884Z,16
2017-01-23T07:02:45.709Z,20
2017-01-23T07:03:45.331Z,20
2017-01-23T07:04:44.971Z,20
2017-01-23T07:05:44.995Z,24
2017-01-23T07:06:45.024Z,28
2017-01-23T07:07:44.643Z,32
2017-01-23T07:08:45.054Z,36
2017-01-23T07:09:45.490Z,40
2017-01-23T07:10:45.911Z,40
2017-01-23T07:11:45.140Z,48
2017-01-23T07:12:45.565Z,52
2017-01-23T07:13:45.189Z,56
2017-01-23T07:14:44.816Z,60
2017-01-23T07:15:45.639Z,64
2017-01-23T07:16:44.875Z,68
2017-01-23T07:17:45.685Z,76
2017-01-23T07:18:46.104Z,84
2017-01-23T07:19:44.933Z,92
2017-01-23T07:20:45.761Z,96
2017-01-23T07:21:45.783Z,104
2017-01-23T07:22:46.224Z,108
2017-01-23T07:23:45.833Z,116
2017-01-23T07:24:45.857Z,120
2017-01-23T07:25:45.486Z,132
2017-01-23T07:26:46.303Z,140
2017-01-23T07:27:45.136Z,148
2017-01-23T07:28:45.957Z,156
2017-01-23T07:29:45.585Z,160
2017-01-23T07:30:46.003Z,168
2017-01-23T07:31:46.431Z,176
2017-01-23T07:32:45.295Z,184
2017-01-23T07:33:45.294Z,192
2017-01-23T07:34:46.109Z,204
2017-01-23T07:35:45.732Z,208
2017-01-23T07:36:45.758Z,216
2017-01-23T07:37:45.386Z,224
2017-01-23T07:38:46.604Z,236
2017-01-23T07:39:46.229Z,244
2017-01-23T07:40:45.866Z,252
2017-01-23T07:41:45.877Z,264
2017-01-23T07:42:46.303Z,276
2017-01-23T07:43:46.723Z,284
2017-01-23T07:44:46.749Z,292
2017-01-23T07:45:46.777Z,304
2017-01-23T07:46:46.006Z,312
2017-01-23T07:47:46.066Z,320
2017-01-23T07:48:46.447Z,332
2017-01-23T07:49:46.481Z,340
2017-01-23T07:50:46.505Z,352
2017-01-23T07:51:46.917Z,360
2017-01-23T07:52:46.567Z,368
2017-01-23T07:53:46.178Z,376
2017-01-23T07:54:46.204Z,388
2017-01-23T07:55:47.024Z,400
2017-01-23T07:56:46.653Z,408
2017-01-23T07:57:45.877Z,416
2017-01-23T07:58:46.299Z,428
2017-01-23T07:59:46.335Z,440
2017-01-23T08:00:46.748Z,448
2017-01-23T08:01:45.981Z,456
2017-01-23T08:02:46.794Z,468
2017-01-23T08:03:46.419Z,480
2017-01-23T08:04:46.843Z,488
2017-01-23T08:05:47.256Z,500
2017-01-23T08:06:47.288Z,508
2017-01-23T08:07:47.313Z,520
2017-01-23T08:08:46.545Z,532
2017-01-23T08:09:46.575Z,544
2017-01-23T08:10:46.595Z,556
2017-01-23T08:11:47.017Z,564
2017-01-23T08:12:47.042Z,580
2017-01-23T08:13:46.662Z,588
2017-01-23T08:14:46.690Z,604
2017-01-23T08:15:46.720Z,612
2017-01-23T08:16:47.141Z,628
2017-01-23T08:17:47.161Z,636
2017-01-23T08:18:47.189Z,652
2017-01-23T08:19:46.417Z,668
2017-01-23T08:20:46.843Z,684
2017-01-23T08:21:46.463Z,704
2017-01-23T08:22:46.884Z,728
2017-01-23T08:23:46.524Z,768
2017-01-23T08:24:46.937Z,816
2017-01-23T08:25:47.355Z,896
2017-01-23T08:26:46.592Z,992
2017-01-23T08:27:46.618Z,1076
2017-01-23T08:28:47.433Z,1156
2017-01-23T08:29:47.457Z,1192
2017-01-23T08:30:47.489Z,1200
2017-01-23T08:31:47.502Z,1208
2017-01-23T08:32:47.535Z,1212
2017-01-23T08:33:47.557Z,1208
2017-01-23T08:34:47.580Z,1208
2017-01-23T08:35:47.206Z,1204
2017-01-23T08:36:47.635Z,1212
2017-01-23T08:37:48.044Z,1220
2017-01-23T08:38:48.072Z,1232
2017-01-23T08:39:47.306Z,1236
2017-01-23T08:40:47.333Z,1236
2017-01-23T08:41:47.351Z,1232
2017-01-23T08:42:46.991Z,1244
2017-01-23T08:43:47.402Z,1264
2017-01-23T08:44:47.424Z,1276
2017-01-23T08:45:47.852Z,1288
2017-01-23T08:46:48.267Z,1312
2017-01-23T08:47:48.318Z,1348
2017-01-23T08:48:47.525Z,1376
2017-01-23T08:49:47.552Z,1400
2017-01-23T08:50:48.003Z,1424
2017-01-23T08:51:47.595Z,1436
2017-01-23T08:52:48.017Z,1448
2017-01-23T08:53:48.042Z,1452
2017-01-23T08:54:48.076Z,1476
2017-01-23T08:55:47.690Z,1484
2017-01-23T08:56:47.720Z,1504
2017-01-23T08:57:48.143Z,1496
2017-01-23T08:58:48.175Z,1504
2017-01-23T08:59:47.805Z,1516
2017-01-23T09:00:47.429Z,1512
2017-01-23T09:01:48.271Z,1512
2017-01-23T09:02:47.866Z,1528
2017-01-23T09:03:47.892Z,1516
2017-01-23T09:04:48.314Z,1512
2017-01-23T09:05:47.948Z,1508
2017-01-23T09:06:48.758Z,1500
2017-01-23T09:07:48.391Z,1500
2017-01-23T09:08:48.025Z,1504
2017-01-23T09:09:48.042Z,1504
2017-01-23T09:10:48.074Z,1512
2017-01-23T09:11:47.703Z,1512
2017-01-23T09:12:47.719Z,1516
2017-01-23T09:13:48.144Z,1524
2017-01-23T09:14:48.557Z,1516
2017-01-23T09:15:48.594Z,1524
2017-01-23T09:16:48.615Z,1532
2017-01-23T09:17:48.640Z,1532
2017-01-23T09:18:48.665Z,1532
2017-01-23T09:19:48.297Z,1532
2017-01-23T09:20:49.113Z,1528
2017-01-23T09:21:47.947Z,1536
2017-01-23T09:22:48.372Z,1532
2017-01-23T09:23:49.188Z,1536
2017-01-23T09:24:48.813Z,1540
2017-01-23T09:25:48.441Z,1548
2017-01-23T09:26:48.866Z,1556
2017-01-23T09:27:49.283Z,1564
2017-01-23T09:28:48.911Z,1572
2017-01-23T09:29:48.941Z,1584
2017-01-23T09:30:48.565Z,1596
2017-01-23T09:31:48.590Z,1604
2017-01-23T09:32:48.615Z,1616
2017-01-23T09:33:48.643Z,1632
2017-01-23T09:34:49.061Z,1632
2017-01-23T09:35:48.703Z,1640
2017-01-23T09:36:49.111Z,1636
2017-01-23T09:37:49.143Z,1644
2017-01-23T09:38:49.165Z,1624
2017-01-23T09:39:49.196Z,1656
2017-01-23T09:40:48.813Z,1684
2017-01-23T09:41:48.437Z,1696
2017-01-23T09:42:48.462Z,1708
2017-01-23T09:43:49.312Z,1728
2017-01-23T09:44:48.912Z,1744
2017-01-23T09:45:48.963Z,1756
2017-01-23T09:46:49.762Z,1772
2017-01-23T09:47:48.975Z,1792
2017-01-23T09:48:49.839Z,1796
2017-01-23T09:49:49.828Z,1800
2017-01-23T09:50:49.457Z,1812
2017-01-23T09:51:48.698Z,1828
2017-01-23T09:52:49.110Z,1844
2017-01-23T09:53:48.734Z,1860
2017-01-23T09:54:49.556Z,1872
2017-01-23T09:55:48.783Z,1880
2017-01-23T09:56:49.997Z,1888
2017-01-23T09:57:50.028Z,1900
2017-01-23T09:58:49.681Z,1912
2017-01-23T09:59:48.887Z,1928
2017-01-23T10:00:49.703Z,1940
2017-01-23T10:01:49.729Z,1948
2017-01-23T10:02:48.961Z,1952
2017-01-23T10:03:50.186Z,1960
2017-01-23T10:04:49.398Z,1956
2017-01-23T10:05:49.427Z,1892
2017-01-23T10:06:49.848Z,1820
2017-01-23T10:07:49.477Z,1824
2017-01-23T10:08:50.298Z,1824
2017-01-23T10:09:49.922Z,1832
2017-01-23T10:10:49.955Z,1864
2017-01-23T10:11:49.592Z,1904
2017-01-23T10:12:50.399Z,1976
2017-01-23T10:13:49.237Z,1976
2017-01-23T10:14:49.654Z,1996
2017-01-23T10:15:49.683Z,1624
2017-01-23T10:16:50.108Z,2052
2017-01-23T10:17:50.523Z,2144
2017-01-23T10:18:49.760Z,2168
2017-01-23T10:19:49.377Z,2184
2017-01-23T10:20:49.810Z,2224
2017-01-23T10:21:49.435Z,2228
2017-01-23T10:22:49.856Z,2240
2017-01-23T10:23:49.472Z,2244
2017-01-23T10:24:49.913Z,2248
2017-01-23T10:25:49.930Z,2244
2017-01-23T10:26:50.355Z,2252
2017-01-23T10:27:50.783Z,2272
2017-01-23T10:28:50.799Z,2268
2017-01-23T10:29:50.030Z,2288
2017-01-23T10:30:50.051Z,2304
2017-01-23T10:31:50.487Z,2208
2017-01-23T10:32:49.712Z,2364
2017-01-23T10:33:50.528Z,2372
2017-01-23T10:34:50.157Z,2416
2017-01-23T10:35:50.182Z,2432
2017-01-23T10:36:50.210Z,2436
2017-01-23T10:37:50.623Z,2460
2017-01-23T10:38:50.260Z,2476
2017-01-23T10:39:49.888Z,2468
2017-01-23T10:40:50.345Z,2472
2017-01-23T10:41:50.730Z,2484
2017-01-23T10:42:50.746Z,2504
2017-01-23T10:43:50.387Z,2524
2017-01-23T10:44:50.801Z,2536
2017-01-23T10:45:51.225Z,2564
2017-01-23T10:46:51.258Z,2572
2017-01-23T10:47:50.882Z,2428
2017-01-23T10:48:51.303Z,2224
2017-01-23T10:49:50.538Z,2124
2017-01-23T10:50:50.954Z,2088
2017-01-23T10:51:50.194Z,2088
2017-01-23T10:52:50.610Z,2144
2017-01-23T10:53:50.636Z,2160
2017-01-23T10:54:50.268Z,2148
2017-01-23T10:55:51.081Z,2200
2017-01-23T10:56:50.713Z,2292
2017-01-23T10:57:51.526Z,2388
2017-01-23T10:58:51.554Z,2444
2017-01-23T10:59:51.579Z,2504
2017-01-23T11:00:51.241Z,2552
2017-01-23T11:01:50.832Z,2596
2017-01-23T11:02:51.253Z,2644
2017-01-23T11:03:51.267Z,2540
2017-01-23T11:04:51.315Z,2320
2017-01-23T11:05:51.341Z,2228
2017-01-23T11:06:50.973Z,2232
2017-01-23T11:07:51.379Z,2264
2017-01-23T11:08:51.019Z,2300
2017-01-23T11:09:51.434Z,2468
2017-01-23T11:10:50.694Z,2668
2017-01-23T11:11:51.095Z,2940
2017-01-23T11:12:50.721Z,2864
2017-01-23T11:13:50.746Z,3024
2017-01-23T11:14:51.563Z,2988
2017-01-23T11:15:50.796Z,2876
2017-01-23T11:16:51.612Z,3120
2017-01-23T11:17:51.633Z,3088
2017-01-23T11:18:51.262Z,3300
2017-01-23T11:19:51.727Z,3376
2017-01-23T11:20:51.711Z,3400
2017-01-23T11:21:51.348Z,3460
2017-01-23T11:22:50.972Z,3480
2017-01-23T11:23:51.386Z,3572
2017-01-23T11:24:51.417Z,3604
2017-01-23T11:25:51.442Z,3612
2017-01-23T11:26:51.867Z,3640
2017-01-23T11:27:51.892Z,3564
2017-01-23T11:28:51.520Z,3648
2017-01-23T11:29:51.145Z,3644
2017-01-23T11:30:52.364Z,3668
2017-01-23T11:31:51.197Z,3688
2017-01-23T11:32:51.619Z,3740
2017-01-23T11:33:52.070Z,3724
2017-01-23T11:34:51.673Z,3796
2017-01-23T11:35:52.493Z,3800
2017-01-23T11:36:52.514Z,3860
2017-01-23T11:37:52.152Z,3932
2017-01-23T11:38:51.379Z,3880
2017-01-23T11:39:52.594Z,3908
2017-01-23T11:40:51.449Z,3952
2017-01-23T11:41:51.851Z,3956
2017-01-23T11:42:52.274Z,3936
2017-01-23T11:43:52.323Z,3928
2017-01-23T11:44:52.321Z,3960
2017-01-23T11:45:52.749Z,4008
2017-01-23T11:46:52.374Z,3856
2017-01-23T11:47:52.394Z,3856
2017-01-23T11:48:52.428Z,3956
2017-01-23T11:49:52.848Z,3976
2017-01-23T11:50:52.083Z,3964
2017-01-23T11:51:52.097Z,3916
2017-01-23T11:52:52.130Z,3924
2017-01-23T11:53:52.155Z,3904
2017-01-23T11:54:52.187Z,3844
2017-01-23T11:55:52.201Z,3852
2017-01-23T11:56:52.258Z,3764
2017-01-23T11:57:53.056Z,3680
2017-01-23T11:58:52.679Z,3608
2017-01-23T11:59:52.311Z,3480
2017-01-23T12:00:52.344Z,3428
2017-01-23T12:01:52.368Z,3444
2017-01-23T12:02:52.380Z,3372
2017-01-23T12:03:52.814Z,3300
2017-01-23T12:04:53.231Z,3176
2017-01-23T12:05:52.467Z,3276
2017-01-23T12:06:52.909Z,3220
2017-01-23T12:07:52.522Z,3080
2017-01-23T12:08:52.937Z,3108
2017-01-23T12:09:52.975Z,3048
2017-01-23T12:10:52.607Z,3048
2017-01-23T12:11:52.620Z,2936
2017-01-23T12:12:52.641Z,2884
2017-01-23T12:13:53.066Z,2856
2017-01-23T12:14:53.086Z,2880
2017-01-23T12:15:53.515Z,2936
2017-01-23T12:16:52.753Z,2968
2017-01-23T12:17:52.794Z,2968
2017-01-23T12:18:52.813Z,2984
2017-01-23T12:19:52.438Z,2928
2017-01-23T12:20:52.855Z,2864
2017-01-23T12:21:52.883Z,2864
2017-01-23T12:22:52.509Z,2868
2017-01-23T12:23:53.730Z,2888
2017-01-23T12:24:53.382Z,2888
2017-01-23T12:25:53.382Z,2840
2017-01-23T12:26:53.801Z,2840
2017-01-23T12:27:53.825Z,2812
2017-01-23T12:28:53.453Z,2780
2017-01-23T12:29:53.491Z,2768
2017-01-23T12:30:52.707Z,2752
2017-01-23T12:31:53.151Z,2816
2017-01-23T12:32:53.163Z,2764
2017-01-23T12:33:52.796Z,2760
2017-01-23T12:34:52.822Z,2800
2017-01-23T12:35:53.640Z,2812
2017-01-23T12:36:53.263Z,2748
2017-01-23T12:37:54.083Z,2656
2017-01-23T12:38:54.120Z,2616
2017-01-23T12:39:52.948Z,2636
2017-01-23T12:40:53.769Z,2620
2017-01-23T12:41:53.403Z,2636
2017-01-23T12:42:53.423Z,2644
2017-01-23T12:43:53.444Z,2628
2017-01-23T12:44:53.869Z,2648
2017-01-23T12:45:54.297Z,2648
2017-01-23T12:46:54.322Z,2648
2017-01-23T12:47:54.347Z,2632
2017-01-23T12:48:54.367Z,2612
2017-01-23T12:49:54.005Z,2588
2017-01-23T12:50:54.426Z,2588
2017-01-23T12:51:54.042Z,2612
2017-01-23T12:52:54.474Z,2616
2017-01-23T12:53:54.503Z,2608
2017-01-23T12:54:54.132Z,2584
2017-01-23T12:55:53.757Z,2572
2017-01-23T12:56:54.582Z,2536
2017-01-23T12:57:54.610Z,2496
2017-01-23T12:58:53.447Z,2452
2017-01-23T12:59:53.459Z,2428
2017-01-23T13:00:53.896Z,2460
2017-01-23T13:01:53.916Z,2412
2017-01-23T13:02:53.925Z,2444
2017-01-23T13:03:54.355Z,2480
2017-01-23T13:04:53.991Z,2468
2017-01-23T13:05:54.411Z,2424
2017-01-23T13:06:54.441Z,2360
2017-01-23T13:07:54.862Z,2344
2017-01-23T13:08:54.098Z,2356
2017-01-23T13:09:54.515Z,2372
2017-01-23T13:10:54.548Z,2348
2017-01-23T13:11:54.168Z,2328
2017-01-23T13:12:54.989Z,2296
2017-01-23T13:13:54.226Z,2280
2017-01-23T13:14:54.651Z,2256
2017-01-23T13:15:54.680Z,2256
2017-01-23T13:16:55.098Z,2284
2017-01-23T13:17:55.121Z,2308
2017-01-23T13:18:53.959Z,2288
2017-01-23T13:19:53.981Z,2264
2017-01-23T13:20:54.396Z,2232
2017-01-23T13:21:54.028Z,2192
2017-01-23T13:22:54.458Z,2060
2017-01-23T13:23:54.873Z,2024
2017-01-23T13:24:55.292Z,2032
2017-01-23T13:25:54.527Z,2080
2017-01-23T13:26:54.970Z,2188
2017-01-23T13:27:55.377Z,2168
2017-01-23T13:28:55.005Z,2024
2017-01-23T13:29:54.638Z,2076
2017-01-23T13:30:54.263Z,2164
2017-01-23T13:31:54.691Z,2164
2017-01-23T13:32:55.104Z,2140
2017-01-23T13:33:54.738Z,2128
2017-01-23T13:34:54.366Z,2076
2017-01-23T13:35:54.779Z,2040
2017-01-23T13:36:55.611Z,2088
2017-01-23T13:37:54.444Z,2060
2017-01-23T13:38:55.259Z,2044
2017-01-23T13:39:54.905Z,2036
2017-01-23T13:40:54.940Z,2024
2017-01-23T13:41:55.342Z,2008
2017-01-23T13:42:54.966Z,2016
2017-01-23T13:43:55.388Z,2052
2017-01-23T13:44:55.800Z,2088
2017-01-23T13:45:55.437Z,2088
2017-01-23T13:46:55.462Z,2056
2017-01-23T13:47:54.688Z,2012
2017-01-23T13:48:55.510Z,1952
2017-01-23T13:49:55.143Z,1876
2017-01-23T13:50:55.168Z,1920
2017-01-23T13:51:55.572Z,1992
2017-01-23T13:52:56.016Z,2028
2017-01-23T13:53:55.637Z,2052
2017-01-23T13:54:55.667Z,2068
2017-01-23T13:55:56.095Z,2084
2017-01-23T13:56:55.711Z,2080
2017-01-23T13:57:55.735Z,2068
2017-01-23T13:58:55.366Z,2044
2017-01-23T13:59:55.396Z,2000
2017-01-23T14:00:55.813Z,1956
2017-01-23T14:01:55.839Z,1912
2017-01-23T14:02:56.262Z,1872
2017-01-23T14:03:55.895Z,1856
2017-01-23T14:04:55.920Z,1836